Terminal Aerodrome Forecast
Issued by NWS Shreveport, LA

Home | Current Version | Previous Version | Text Only | Print | Product List | Glossary On
Versions: 1 2 3 4 5 6 7 8 9 10 11 12 13 14 15 16 17 18
000
FTUS44 KSHV 190124 AAA
TAFTYR
TAF AMD
KTYR 190124Z 1901/1924 VRB06KT P6SM VCTS SCT035CB SCT140 OVC250
      TEMPO 1902/1906 VRB20G40KT 2SM TSRA BR BKN025CB
     FM191400 20010KT P6SM SCT015 SCT140 SCT250
     FM191600 22014G20KT P6SM SCT030
     FM191900 24015G25KT P6SM SCT040=

USA.gov is the U.S. government's official web portal to all federal, state and local government web resources and services.